Time;durP1;ratioP1;P1;durP2;ratioP2;P2;SDS_P1;SDS_P2;PMS_P1;PMS_P2;Temp;Humidity;BMP_temperature;BMP_pressure;BME280_temperature;BME280_humidity;BME280_pressure;Samples;Min_cycle;Max_cycle;Signal;HPM_P1;HPM_P2
2022/07/20 00:01:19;;;;;;;11.95;6.15;;;28.10;58.20;;;;;;5090868;28;20051;-68
2022/07/20 00:04:23;;;;;;;15.50;6.03;;;28.00;57.80;;;;;;5090751;28;20047;-68
2022/07/20 00:07:26;;;;;;;12.07;6.25;;;28.00;58.20;;;;;;5090555;28;20059;-68
2022/07/20 00:13:57;;;;;;;16.80;6.60;;;27.80;58.70;;;;;;5094436;28;20047;-68
2022/07/20 00:17:02;;;;;;;15.77;6.93;;;27.70;58.70;;;;;;5094396;28;20055;-68
2022/07/20 00:20:06;;;;;;;19.42;7.10;;;27.50;59.20;;;;;;5094698;28;20043;-67
2022/07/20 00:23:10;;;;;;;10.27;6.38;;;27.50;59.50;;;;;;5094560;28;20395;-68
2022/07/20 00:26:14;;;;;;;15.52;6.60;;;27.40;60.30;;;;;;5094283;28;20047;-68
2022/07/20 00:29:18;;;;;;;16.65;6.30;;;27.40;60.30;;;;;;5094196;28;20043;-68
2022/07/20 00:32:22;;;;;;;14.30;6.40;;;27.40;60.20;;;;;;5094312;28;20380;-68
2022/07/20 00:35:26;;;;;;;16.63;6.15;;;27.30;60.20;;;;;;5094019;28;20392;-68
2022/07/20 00:38:30;;;;;;;19.08;6.50;;;27.30;60.40;;;;;;5094260;28;20051;-68
2022/07/20 00:41:34;;;;;;;20.92;6.65;;;27.30;60.40;;;;;;5094371;28;20039;-68
2022/07/20 00:44:38;;;;;;;22.42;6.32;;;27.30;60.70;;;;;;5094562;28;20051;-68
2022/07/20 00:47:42;;;;;;;12.15;6.38;;;27.30;60.90;;;;;;5093592;28;20044;-68
2022/07/20 00:50:46;;;;;;;11.88;5.57;;;27.30;60.00;;;;;;5093929;28;20400;-68
2022/07/20 00:53:51;;;;;;;14.70;6.18;;;27.30;60.20;;;;;;5093849;28;20055;-68
2022/07/20 00:56:56;;;;;;;19.35;6.82;;;27.20;60.60;;;;;;5093813;28;20392;-68
2022/07/20 01:00:00;;;;;;;17.63;6.00;;;27.10;61.60;;;;;;5093692;28;20392;-68
2022/07/20 01:03:04;;;;;;;17.38;6.60;;;27.10;60.80;;;;;;5093218;28;20054;-68
2022/07/20 01:06:08;;;;;;;18.73;6.60;;;27.20;60.70;;;;;;5093665;28;20051;-68
2022/07/20 01:09:12;;;;;;;11.35;6.20;;;27.20;60.80;;;;;;5093576;28;20047;-68
2022/07/20 01:12:17;;;;;;;20.45;6.43;;;27.20;61.00;;;;;;5093803;28;20054;-68
2022/07/20 01:15:21;;;;;;;9.85;5.70;;;27.20;60.80;;;;;;5093780;28;20392;-68
2022/07/20 01:18:25;;;;;;;11.55;6.22;;;27.20;60.40;;;;;;5093345;28;20039;-68
2022/07/20 01:21:29;;;;;;;14.10;5.57;;;27.20;60.10;;;;;;5093137;28;20490;-68
2022/07/20 01:24:33;;;;;;;16.50;6.15;;;27.10;60.30;;;;;;5093613;28;20043;-68
2022/07/20 01:27:37;;;;;;;11.07;6.10;;;27.00;60.50;;;;;;5092886;28;20055;-67
2022/07/20 01:30:41;;;;;;;13.13;5.28;;;26.80;60.30;;;;;;5093032;28;20047;-68
2022/07/20 01:33:46;;;;;;;11.25;5.50;;;26.60;60.70;;;;;;5093390;28;20047;-68
2022/07/20 01:36:49;;;;;;;12.43;6.32;;;26.60;61.80;;;;;;5093180;28;20039;-68
2022/07/20 01:39:54;;;;;;;14.25;5.75;;;26.60;61.60;;;;;;5093095;28;20047;-68
2022/07/20 01:42:57;;;;;;;12.40;5.55;;;26.50;61.50;;;;;;5093184;28;20408;-67
2022/07/20 01:46:01;;;;;;;10.98;5.40;;;26.50;62.00;;;;;;5092655;28;20047;-68
2022/07/20 01:49:05;;;;;;;14.02;5.90;;;26.50;62.30;;;;;;5092602;28;20507;-68
2022/07/20 01:52:09;;;;;;;13.55;6.35;;;26.40;62.30;;;;;;5091895;28;20047;-68
2022/07/20 01:55:13;;;;;;;16.25;6.60;;;26.40;62.70;;;;;;5093035;28;20039;-68
2022/07/20 01:58:17;;;;;;;26.25;6.05;;;26.40;63.00;;;;;;5092693;28;20038;-68
2022/07/20 02:01:21;;;;;;;20.45;6.28;;;26.30;63.10;;;;;;5092731;28;20356;-68
2022/07/20 02:04:25;;;;;;;16.98;6.10;;;26.30;63.10;;;;;;5092727;28;20090;-68
2022/07/20 02:07:29;;;;;;;15.23;6.80;;;26.20;63.50;;;;;;5092212;28;20055;-68
2022/07/20 02:10:34;;;;;;;22.63;6.82;;;26.20;63.60;;;;;;5092529;28;20051;-68
2022/07/20 02:13:38;;;;;;;18.85;6.22;;;26.20;63.80;;;;;;5092816;28;20059;-68
2022/07/20 02:16:42;;;;;;;19.90;6.40;;;26.10;64.20;;;;;;5091165;28;20039;-68
2022/07/20 02:19:46;;;;;;;21.63;6.05;;;26.20;64.30;;;;;;5092398;28;20491;-68
2022/07/20 02:22:50;;;;;;;13.68;5.68;;;26.20;64.50;;;;;;5092285;28;20051;-67
2022/07/20 02:25:53;;;;;;;20.00;6.30;;;26.20;64.40;;;;;;5092093;28;20035;-67
2022/07/20 02:28:57;;;;;;;18.88;6.05;;;26.20;63.70;;;;;;5092269;28;20411;-68
2022/07/20 02:32:01;;;;;;;21.80;6.65;;;26.10;64.20;;;;;;5092063;28;20039;-68
2022/07/20 02:35:06;;;;;;;12.73;6.20;;;26.10;64.30;;;;;;5091008;28;20043;-68
2022/07/20 02:38:10;;;;;;;17.52;6.40;;;26.00;63.90;;;;;;5091688;28;20039;-68
2022/07/20 02:41:14;;;;;;;20.85;6.28;;;26.00;63.70;;;;;;5091783;28;20039;-68
2022/07/20 02:44:18;;;;;;;19.67;6.53;;;25.80;64.00;;;;;;5092110;28;20047;-68
2022/07/20 02:47:22;;;;;;;14.30;6.72;;;25.70;64.40;;;;;;5090928;28;20047;-67
2022/07/20 02:50:25;;;;;;;18.33;6.25;;;25.70;64.30;;;;;;5091664;28;20051;-68
2022/07/20 02:53:29;;;;;;;21.85;6.82;;;25.60;64.40;;;;;;5091904;28;20102;-67
2022/07/20 02:56:33;;;;;;;18.52;6.30;;;25.60;64.00;;;;;;5091717;28;20055;-68
2022/07/20 02:59:37;;;;;;;15.07;6.50;;;25.70;63.70;;;;;;5091681;28;20047;-68
2022/07/20 03:02:41;;;;;;;14.60;7.10;;;25.90;63.40;;;;;;5091759;28;20062;-68
2022/07/20 03:05:45;;;;;;;11.07;6.47;;;25.80;63.60;;;;;;5091385;28;20043;-68
2022/07/20 03:08:49;;;;;;;23.27;7.05;;;25.70;62.10;;;;;;5092302;28;20059;-68
2022/07/20 03:11:53;;;;;;;10.50;6.50;;;25.70;62.00;;;;;;5091543;28;20507;-68
2022/07/20 03:14:57;;;;;;;16.83;7.57;;;25.60;61.90;;;;;;5092014;28;20074;-68
2022/07/20 03:18:01;;;;;;;19.85;8.57;;;25.50;61.60;;;;;;5091373;28;20416;-68
2022/07/20 03:21:05;;;;;;;14.85;7.90;;;25.50;60.30;;;;;;5091627;28;20590;-68
2022/07/20 03:24:09;;;;;;;13.38;7.20;;;25.50;60.70;;;;;;5091709;28;20051;-68
2022/07/20 03:27:13;;;;;;;22.08;8.68;;;25.50;59.90;;;;;;5091393;28;20050;-68
2022/07/20 03:30:17;;;;;;;18.77;8.00;;;25.50;60.20;;;;;;5091838;28;20051;-68
2022/07/20 03:33:21;;;;;;;21.95;8.90;;;25.50;61.00;;;;;;5090652;28;20047;-68
2022/07/20 03:36:25;;;;;;;20.33;8.68;;;25.60;60.80;;;;;;5091411;28;20043;-68
2022/07/20 03:39:29;;;;;;;12.68;7.00;;;25.60;60.40;;;;;;5091564;28;20039;-68
2022/07/20 03:42:34;;;;;;;17.77;7.05;;;25.60;60.50;;;;;;5091535;28;20499;-68
2022/07/20 03:45:38;;;;;;;17.00;7.90;;;25.60;61.20;;;;;;5094475;28;20043;-68
2022/07/20 03:48:42;;;;;;;17.52;6.90;;;25.50;61.50;;;;;;5095694;28;20050;-68
2022/07/20 03:51:46;;;;;;;21.30;7.82;;;25.40;61.10;;;;;;5095556;28;20051;-68
2022/07/20 03:54:51;;;;;;;21.85;7.75;;;25.30;60.30;;;;;;5095454;28;20051;-68
2022/07/20 03:57:55;;;;;;;16.63;7.80;;;25.10;61.30;;;;;;5094982;28;20031;-69
2022/07/20 04:00:59;;;;;;;24.92;8.18;;;25.00;61.60;;;;;;5098445;28;20047;-68
2022/07/20 04:04:03;;;;;;;13.88;8.07;;;24.90;62.30;;;;;;5095098;28;20051;-69
2022/07/20 04:07:07;;;;;;;24.02;9.65;;;24.90;62.40;;;;;;5095010;28;20051;-68
2022/07/20 04:10:11;;;;;;;22.23;9.52;;;24.90;62.40;;;;;;5095016;28;20043;-68
2022/07/20 04:13:15;;;;;;;22.83;9.13;;;24.90;62.30;;;;;;5095179;28;20054;-68
2022/07/20 04:16:20;;;;;;;19.73;8.23;;;25.00;63.00;;;;;;5094725;28;20039;-68
2022/07/20 04:19:24;;;;;;;58.72;10.23;;;25.00;63.00;;;;;;5095057;28;20039;-68
2022/07/20 04:22:28;;;;;;;23.60;8.32;;;24.90;63.80;;;;;;5094855;28;20055;-68
2022/07/20 04:25:32;;;;;;;25.92;8.50;;;24.90;63.30;;;;;;5094625;28;20047;-68
2022/07/20 04:28:36;;;;;;;29.23;8.43;;;24.90;63.00;;;;;;5094290;28;20206;-68
2022/07/20 04:31:40;;;;;;;31.58;8.60;;;25.00;63.70;;;;;;5094583;28;20043;-68
2022/07/20 04:34:44;;;;;;;22.77;7.15;;;25.00;62.80;;;;;;5094025;28;20051;-68
2022/07/20 04:37:48;;;;;;;31.73;8.13;;;25.00;62.60;;;;;;5094156;28;20510;-68
2022/07/20 04:40:52;;;;;;;23.73;8.70;;;25.10;64.10;;;;;;5093157;28;20051;-68
2022/07/20 04:43:56;;;;;;;27.88;9.25;;;25.50;61.50;;;;;;5093760;28;20039;-68
2022/07/20 04:46:59;;;;;;;24.45;11.68;;;26.00;60.50;;;;;;5093751;28;20040;-68
2022/07/20 04:50:04;;;;;;;29.58;9.95;;;26.60;58.90;;;;;;5093866;28;20051;-67
2022/07/20 04:53:08;;;;;;;25.02;9.77;;;27.30;58.00;;;;;;5094120;28;20039;-68
2022/07/20 04:56:12;;;;;;;28.50;10.70;;;28.00;57.00;;;;;;5093235;28;20043;-68
2022/07/20 04:59:16;;;;;;;31.35;12.13;;;28.10;56.40;;;;;;5094164;28;20047;-68
2022/07/20 05:02:20;;;;;;;27.05;12.02;;;28.10;55.90;;;;;;5093984;28;20046;-68
2022/07/20 05:05:24;;;;;;;26.98;12.90;;;28.10;56.10;;;;;;5093986;28;20360;-68
2022/07/20 05:08:29;;;;;;;40.65;13.48;;;28.60;55.70;;;;;;5093306;28;20051;-68
2022/07/20 05:11:33;;;;;;;32.65;13.73;;;28.80;56.20;;;;;;5093513;28;20043;-68
2022/07/20 05:14:37;;;;;;;31.08;13.70;;;29.00;55.20;;;;;;5093453;28;20507;-67
2022/07/20 05:17:41;;;;;;;26.55;12.98;;;29.10;53.40;;;;;;5093216;28;20051;-68
2022/07/20 05:20:46;;;;;;;33.65;11.95;;;29.00;53.90;;;;;;5092851;28;20047;-68
2022/07/20 05:23:50;;;;;;;28.27;12.70;;;29.20;52.90;;;;;;5093638;28;20043;-67
2022/07/20 05:26:54;;;;;;;37.22;12.88;;;28.90;52.90;;;;;;5093995;28;20047;-68
2022/07/20 05:29:58;;;;;;;37.75;12.35;;;28.70;54.00;;;;;;5092469;28;20114;-67
2022/07/20 05:33:02;;;;;;;38.17;12.10;;;28.80;54.00;;;;;;5093750;28;20059;-67
2022/07/20 05:36:06;;;;;;;29.40;11.68;;;28.70;54.70;;;;;;5092967;28;20051;-67
2022/07/20 05:39:11;;;;;;;33.72;11.95;;;28.90;53.80;;;;;;5093012;28;20435;-67
2022/07/20 05:42:15;;;;;;;28.42;10.15;;;28.90;54.40;;;;;;5093143;28;20391;-67
2022/07/20 05:45:19;;;;;;;36.60;11.45;;;29.00;53.50;;;;;;5092816;28;20039;-67
2022/07/20 05:48:22;;;;;;;35.70;10.52;;;28.90;53.90;;;;;;5092535;28;20062;-68
2022/07/20 05:51:26;;;;;;;28.77;8.50;;;29.10;54.90;;;;;;5092576;28;20043;-68
2022/07/20 05:54:31;;;;;;;42.42;9.32;;;29.50;53.60;;;;;;5092817;28;20419;-68
2022/07/20 05:57:35;;;;;;;26.65;9.15;;;30.00;53.10;;;;;;5091656;28;20035;-68
2022/07/20 06:00:38;;;;;;;28.80;8.02;;;30.30;52.40;;;;;;5091853;28;20055;-70
2022/07/20 06:03:42;;;;;;;29.15;8.60;;;30.40;51.90;;;;;;5092367;28;20058;-71
2022/07/20 06:06:47;;;;;;;15.15;7.32;;;30.10;52.10;;;;;;5092017;28;20047;-70
2022/07/20 06:09:50;;;;;;;26.30;8.98;;;30.30;51.50;;;;;;5091652;28;20047;-71
2022/07/20 06:12:55;;;;;;;21.00;8.23;;;30.40;51.10;;;;;;5092489;28;20042;-70
2022/07/20 06:15:59;;;;;;;23.58;8.07;;;30.60;50.50;;;;;;5092100;28;20063;-71
2022/07/20 06:19:03;;;;;;;19.42;8.32;;;30.50;50.70;;;;;;5092224;28;20043;-71
2022/07/20 06:22:07;;;;;;;22.08;7.80;;;30.50;50.10;;;;;;5092491;28;20047;-70
2022/07/20 06:25:13;;;;;;;22.80;7.07;;;30.60;50.50;;;;;;5092710;28;20047;-70
2022/07/20 06:28:17;;;;;;;24.50;6.85;;;30.90;49.00;;;;;;5092348;28;20051;-70
2022/07/20 06:31:21;;;;;;;23.25;7.45;;;31.30;48.80;;;;;;5092257;28;20043;-69
2022/07/20 06:34:25;;;;;;;21.83;6.45;;;31.60;47.80;;;;;;5092222;28;20062;-68
2022/07/20 06:37:29;;;;;;;23.70;6.47;;;31.50;45.90;;;;;;5091549;28;20047;-68
2022/07/20 06:40:33;;;;;;;25.25;6.43;;;31.50;46.10;;;;;;5091586;28;20210;-67
2022/07/20 06:43:37;;;;;;;18.58;5.82;;;31.60;44.60;;;;;;5091883;28;20038;-69
2022/07/20 06:46:41;;;;;;;29.83;6.90;;;31.70;45.70;;;;;;5091311;28;20043;-67
2022/07/20 06:49:44;;;;;;;25.50;7.13;;;32.10;45.10;;;;;;5091365;28;20058;-67
2022/07/20 06:52:48;;;;;;;23.73;7.30;;;32.20;45.30;;;;;;5091645;28;20068;-67
2022/07/20 06:55:52;;;;;;;26.17;7.55;;;32.50;45.80;;;;;;5091285;28;20055;-67
2022/07/20 06:58:56;;;;;;;29.30;8.05;;;32.90;45.50;;;;;;5091368;28;20077;-69
2022/07/20 07:02:00;;;;;;;28.42;7.30;;;33.00;44.00;;;;;;5091276;28;20031;-71
2022/07/20 07:05:05;;;;;;;30.80;8.48;;;33.20;42.40;;;;;;5091215;28;20106;-67
2022/07/20 07:08:09;;;;;;;20.02;6.15;;;33.00;42.00;;;;;;5091082;28;20058;-68
2022/07/20 07:11:13;;;;;;;21.13;6.38;;;33.20;41.40;;;;;;5090302;28;20035;-68
2022/07/20 07:14:17;;;;;;;23.83;5.70;;;33.00;40.90;;;;;;5091109;28;20400;-68
2022/07/20 07:17:21;;;;;;;17.85;5.88;;;33.00;40.60;;;;;;5090878;28;20430;-69
2022/07/20 07:20:25;;;;;;;16.40;6.22;;;33.30;40.90;;;;;;5090905;28;20503;-69
2022/07/20 07:23:28;;;;;;;17.77;5.68;;;33.80;40.90;;;;;;5091241;28;20498;-68
2022/07/20 07:26:32;;;;;;;20.80;5.57;;;33.70;39.10;;;;;;5090116;28;20039;-69
2022/07/20 07:29:36;;;;;;;17.83;6.80;;;33.70;40.30;;;;;;5090845;28;20079;-69
2022/07/20 07:32:40;;;;;;;19.38;6.68;;;34.00;40.00;;;;;;5090859;28;20047;-69
2022/07/20 07:35:44;;;;;;;17.65;6.95;;;33.90;39.90;;;;;;5090779;28;20043;-69
2022/07/20 07:38:48;;;;;;;21.35;7.97;;;34.10;40.60;;;;;;5091106;28;20400;-68
2022/07/20 07:41:52;;;;;;;23.90;8.02;;;34.30;39.90;;;;;;5090778;28;20047;-71
2022/07/20 07:44:56;;;;;;;26.23;8.48;;;34.50;38.90;;;;;;5090906;28;20047;-70
2022/07/20 07:48:00;;;;;;;26.33;8.50;;;34.90;40.00;;;;;;5090546;28;20051;-71
2022/07/20 07:51:04;;;;;;;25.55;8.98;;;35.20;39.90;;;;;;5090722;28;20400;-69
2022/07/20 07:54:08;;;;;;;19.65;8.90;;;35.40;39.10;;;;;;5090581;28;20502;-67
2022/07/20 07:57:12;;;;;;;46.22;11.00;;;35.60;38.00;;;;;;5088676;28;20439;-69
2022/07/20 08:00:16;;;;;;;23.23;8.70;;;35.80;38.10;;;;;;5087856;28;20396;-68
2022/07/20 08:03:22;;;;;;;16.83;8.10;;;35.70;38.30;;;;;;5089220;28;20039;-67
2022/07/20 08:06:26;;;;;;;19.48;8.40;;;35.70;37.50;;;;;;5089903;28;20067;-68
2022/07/20 08:09:30;;;;;;;18.70;7.57;;;35.90;37.70;;;;;;5090371;28;20066;-67
2022/07/20 08:12:35;;;;;;;14.45;6.40;;;36.30;37.80;;;;;;5090353;28;20040;-68
2022/07/20 08:15:39;;;;;;;15.13;6.03;;;36.50;36.90;;;;;;5090501;28;20055;-67
2022/07/20 08:18:43;;;;;;;18.90;7.00;;;36.60;36.90;;;;;;5090611;28;20043;-68
2022/07/20 08:21:47;;;;;;;19.50;6.97;;;36.80;37.50;;;;;;5090445;28;20055;-68
2022/07/20 08:24:51;;;;;;;16.23;6.47;;;36.90;37.10;;;;;;5090604;28;20499;-69
2022/07/20 08:28:11;;;;;;;19.33;6.63;;;37.00;36.80;;;;;;5090250;28;20055;-68
2022/07/20 08:31:16;;;;;;;16.67;6.40;;;37.00;36.30;;;;;;5090673;28;20383;-68
2022/07/20 08:34:19;;;;;;;19.05;6.97;;;36.90;36.30;;;;;;5094228;28;20507;-68
2022/07/20 08:37:23;;;;;;;19.70;6.53;;;37.00;38.10;;;;;;5094279;28;20059;-68
2022/07/20 08:40:28;;;;;;;14.45;6.03;;;37.20;37.80;;;;;;5093935;28;20051;-68
2022/07/20 08:43:32;;;;;;;23.65;8.20;;;37.20;37.10;;;;;;5093927;28;20518;-68
2022/07/20 08:46:36;;;;;;;8.80;5.20;;;37.30;37.40;;;;;;5093710;28;20039;-66
2022/07/20 08:49:50;;;;;;;17.33;5.15;;;37.00;37.90;;;;;;5093832;28;20070;-67
2022/07/20 08:52:56;;;;;;;7.97;4.97;;;37.80;36.20;;;;;;5094057;28;20043;-67
2022/07/20 08:56:01;;;;;;;14.43;5.28;;;38.50;35.70;;;;;;5093445;28;20194;-67
2022/07/20 08:59:05;;;;;;;12.88;5.55;;;39.20;35.40;;;;;;5093679;28;20043;-67
2022/07/20 09:02:10;;;;;;;17.50;5.47;;;39.70;35.70;;;;;;5093819;28;20542;-70
2022/07/20 09:05:14;;;;;;;19.55;6.15;;;39.80;35.40;;;;;;5093256;28;20502;-69
2022/07/20 09:08:18;;;;;;;21.90;5.22;;;40.10;34.50;;;;;;5092684;28;20055;-68
2022/07/20 09:11:24;;;;;;;16.20;4.68;;;39.30;34.60;;;;;;5092923;28;20043;-68
2022/07/20 09:14:40;;;;;;;13.38;4.60;;;38.50;34.80;;;;;;5092778;28;20047;-68
2022/07/20 09:17:44;;;;;;;9.60;5.03;;;38.10;36.40;;;;;;5092457;28;20495;-68
2022/07/20 09:20:54;;;;;;;14.05;4.85;;;38.00;36.80;;;;;;5092438;28;20047;-68
2022/07/20 09:24:03;;;;;;;14.80;5.23;;;38.00;36.10;;;;;;5092851;28;20075;-68
2022/07/20 09:27:07;;;;;;;17.45;5.90;;;37.90;36.20;;;;;;5092850;28;20384;-68
2022/07/20 09:30:14;;;;;;;9.13;3.92;;;37.80;36.10;;;;;;5092897;28;20059;-68
2022/07/20 09:33:30;;;;;;;7.80;4.07;;;37.80;36.10;;;;;;5093135;28;20040;-68
2022/07/20 09:36:37;;;;;;;7.30;4.10;;;37.70;35.40;;;;;;5092827;28;20098;-67
2022/07/20 09:40:00;;;;;;;7.45;3.88;;;37.50;36.10;;;;;;5092819;28;20039;-67
2022/07/20 09:43:04;;;;;;;8.07;4.30;;;37.50;36.40;;;;;;5092873;28;20044;-67
2022/07/20 09:46:15;;;;;;;8.02;4.63;;;37.50;36.20;;;;;;5092608;28;20054;-68
2022/07/20 09:49:21;;;;;;;13.02;4.32;;;37.60;37.70;;;;;;5093069;28;20054;-68
2022/07/20 09:52:25;;;;;;;7.50;3.85;;;37.50;36.80;;;;;;5091734;28;20047;-68
2022/07/20 09:55:31;;;;;;;14.07;4.05;;;37.50;37.70;;;;;;5092345;28;20043;-68
2022/07/20 09:58:37;;;;;;;16.42;4.63;;;37.60;36.70;;;;;;5092748;28;20047;-68
2022/07/20 10:01:45;;;;;;;9.20;4.53;;;37.70;37.20;;;;;;5090886;28;20047;-67
2022/07/20 10:04:51;;;;;;;6.07;3.83;;;37.70;37.00;;;;;;5092822;28;20522;-67
2022/07/20 10:07:59;;;;;;;17.50;4.70;;;37.80;36.80;;;;;;5092326;28;20047;-67
2022/07/20 10:11:04;;;;;;;12.00;4.35;;;37.80;36.90;;;;;;5092354;28;20133;-67
2022/07/20 10:14:10;;;;;;;17.17;4.45;;;37.80;36.50;;;;;;5092323;28;20491;-67
2022/07/20 10:17:14;;;;;;;9.80;4.50;;;37.70;36.60;;;;;;5092484;28;20499;-67
2022/07/20 10:20:33;;;;;;;9.13;4.57;;;37.80;37.00;;;;;;5092116;28;20105;-67
2022/07/20 10:23:37;;;;;;;8.45;4.25;;;37.70;36.50;;;;;;5092291;28;20043;-66
2022/07/20 10:26:41;;;;;;;11.32;5.18;;;37.70;37.00;;;;;;5091981;28;20043;-67
2022/07/20 10:29:52;;;;;;;7.07;4.57;;;37.70;36.90;;;;;;5092088;28;20062;-66
2022/07/20 10:32:58;;;;;;;7.70;3.97;;;37.80;36.80;;;;;;5091880;28;20035;-67
2022/07/20 10:39:43;;;;;;;5.38;3.30;;;37.70;35.80;;;;;;5092072;28;20042;-68
2022/07/20 10:42:50;;;;;;;14.88;4.05;;;37.60;36.20;;;;;;5091375;28;20039;-68
2022/07/20 10:45:54;;;;;;;4.68;3.50;;;37.50;36.40;;;;;;5091901;28;20051;-67
2022/07/20 10:48:58;;;;;;;11.18;3.92;;;37.50;36.50;;;;;;5091486;28;20055;-68
2022/07/20 10:52:31;;;;;;;8.93;3.42;;;37.50;36.80;;;;;;5091221;28;20642;-67
2022/07/20 10:55:35;;;;;;;6.75;4.18;;;37.40;36.40;;;;;;5090993;28;20206;-67
2022/07/20 10:58:42;;;;;;;9.85;4.45;;;37.20;35.60;;;;;;5091387;28;20039;-67
2022/07/20 11:01:46;;;;;;;9.45;4.00;;;37.00;36.10;;;;;;5091796;28;20399;-67
2022/07/20 11:04:50;;;;;;;9.98;4.80;;;36.90;37.10;;;;;;5091550;28;20391;-67
2022/07/20 11:07:54;;;;;;;8.07;4.00;;;37.00;38.30;;;;;;5091288;28;20051;-67
2022/07/20 11:10:59;;;;;;;9.57;4.25;;;37.00;38.30;;;;;;5091466;28;20051;-67
2022/07/20 11:14:05;;;;;;;6.68;3.97;;;37.00;37.40;;;;;;5091372;28;20039;-67
2022/07/20 11:17:10;;;;;;;23.52;5.85;;;36.90;36.80;;;;;;5091351;28;20059;-67
2022/07/20 11:20:17;;;;;;;10.30;4.63;;;36.90;37.90;;;;;;5091140;28;20180;-67
2022/07/20 11:23:24;;;;;;;9.80;3.90;;;36.90;37.60;;;;;;5090339;28;20042;-67
2022/07/20 11:26:28;;;;;;;11.80;4.65;;;36.90;37.80;;;;;;5091151;28;20047;-67
2022/07/20 11:29:48;;;;;;;9.60;4.60;;;36.90;39.50;;;;;;5091096;28;20051;-67
2022/07/20 11:32:54;;;;;;;11.18;4.20;;;36.90;39.20;;;;;;5091184;28;20039;-67
2022/07/20 11:36:04;;;;;;;14.90;4.28;;;36.90;39.00;;;;;;5091027;28;20376;-67
2022/07/20 11:39:10;;;;;;;13.65;4.25;;;36.90;39.20;;;;;;5091293;28;20047;-67
2022/07/20 11:42:16;;;;;;;7.20;3.67;;;36.80;39.40;;;;;;5091093;28;20043;-67
2022/07/20 11:45:26;;;;;;;16.20;3.92;;;36.70;40.00;;;;;;5091030;28;20066;-67
2022/07/20 11:48:30;;;;;;;10.63;4.15;;;36.70;40.20;;;;;;5091148;28;20051;-67
2022/07/20 11:51:36;;;;;;;7.22;3.67;;;36.60;41.00;;;;;;5091066;28;20051;-67
2022/07/20 11:54:40;;;;;;;9.93;4.00;;;36.60;40.90;;;;;;5090790;28;20047;-67
2022/07/20 11:57:43;;;;;;;8.07;4.10;;;36.60;40.80;;;;;;5091001;28;20047;-67
2022/07/20 12:00:47;;;;;;;10.43;3.72;;;36.60;41.80;;;;;;5090714;28;20210;-67
2022/07/20 12:04:00;;;;;;;16.80;3.70;;;36.60;42.40;;;;;;5090133;28;20039;-68
2022/07/20 12:08:07;;;;;;;8.25;4.05;;;36.60;43.10;;;;;;5093046;28;20067;-68
2022/07/20 12:10:28;;;;;;;8.45;3.10;;;36.60;43.60;;;;;;5094520;28;20061;-67
2022/07/20 12:13:47;;;;;;;7.97;3.40;;;36.60;43.00;;;;;;5094994;28;20043;-66
2022/07/20 12:16:52;;;;;;;17.80;3.45;;;36.60;42.50;;;;;;5093596;28;20039;-67
2022/07/20 12:19:57;;;;;;;11.27;4.07;;;36.50;41.30;;;;;;5094495;28;20051;-67
2022/07/20 12:23:04;;;;;;;8.02;3.25;;;36.50;40.80;;;;;;5094677;28;20035;-66
2022/07/20 12:26:27;;;;;;;10.35;3.00;;;36.40;40.90;;;;;;5094428;28;20495;-67
2022/07/20 12:29:31;;;;;;;8.60;3.38;;;36.40;40.50;;;;;;5094336;28;20059;-67
2022/07/20 12:32:36;;;;;;;8.60;2.83;;;36.40;40.50;;;;;;5094315;28;20047;-68
2022/07/20 12:35:46;;;;;;;10.13;3.08;;;36.30;39.90;;;;;;5094323;28;20046;-67
2022/07/20 12:38:50;;;;;;;11.57;3.13;;;36.20;40.70;;;;;;5093655;28;20043;-68
2022/07/20 12:42:15;;;;;;;9.20;3.33;;;36.10;41.40;;;;;;5093968;28;20043;-68
2022/07/20 12:45:20;;;;;;;10.13;3.10;;;36.00;42.00;;;;;;5093966;28;20043;-68
2022/07/20 12:48:24;;;;;;;8.60;3.40;;;35.90;41.50;;;;;;5093876;28;20059;-68
2022/07/20 12:51:28;;;;;;;12.23;3.20;;;35.80;40.90;;;;;;5093415;28;20511;-67
2022/07/20 12:54:32;;;;;;;6.85;3.22;;;35.80;41.20;;;;;;5094271;28;20047;-67
2022/07/20 12:57:36;;;;;;;13.40;3.75;;;35.80;42.40;;;;;;5094317;28;20491;-67
2022/07/20 13:00:40;;;;;;;7.32;3.35;;;35.70;43.70;;;;;;5093918;28;20046;-67
2022/07/20 13:03:44;;;;;;;9.65;3.72;;;35.70;45.00;;;;;;5081268;28;20062;-67
2022/07/20 13:06:50;;;;;;;13.50;4.05;;;35.70;44.60;;;;;;5093584;28;20039;-67
2022/07/20 13:09:54;;;;;;;7.13;3.38;;;35.70;43.90;;;;;;5093539;28;20055;-67
2022/07/20 13:12:58;;;;;;;11.40;3.63;;;35.70;42.80;;;;;;5093521;28;20043;-67
2022/07/20 13:16:02;;;;;;;8.45;3.70;;;35.60;43.20;;;;;;5093433;28;20039;-67
2022/07/20 13:19:07;;;;;;;13.05;3.38;;;35.60;44.60;;;;;;5093690;28;20392;-67
2022/07/20 13:22:12;;;;;;;9.40;3.40;;;35.60;44.50;;;;;;5093572;28;20046;-67
2022/07/20 13:25:16;;;;;;;13.13;4.25;;;35.60;45.20;;;;;;5093146;28;20043;-66
2022/07/20 13:28:21;;;;;;;15.38;4.07;;;36.30;44.10;;;;;;5093661;28;20051;-66
2022/07/20 13:31:25;;;;;;;10.25;3.58;;;37.10;42.40;;;;;;5093217;28;20051;-68
2022/07/20 13:34:30;;;;;;;14.57;3.35;;;37.70;42.60;;;;;;5093198;28;20047;-67
2022/07/20 13:37:36;;;;;;;59.00;9.80;;;38.00;43.40;;;;;;5093159;28;20047;-67
2022/07/20 13:40:40;;;;;;;21.50;3.33;;;38.20;43.20;;;;;;5093281;28;20038;-68
2022/07/20 13:43:44;;;;;;;6.20;3.25;;;38.20;41.80;;;;;;5092990;28;20047;-67
2022/07/20 13:46:49;;;;;;;10.70;3.28;;;38.20;40.30;;;;;;5092771;28;20046;-69
2022/07/20 13:49:53;;;;;;;13.73;3.30;;;38.40;41.40;;;;;;5092323;28;20066;-70
2022/07/20 13:52:57;;;;;;;11.88;2.80;;;38.40;40.20;;;;;;5092762;28;20042;-67
2022/07/20 13:56:09;;;;;;;5.60;3.47;;;38.40;41.60;;;;;;5092998;28;20047;-68
2022/07/20 13:59:14;;;;;;;6.13;3.25;;;38.50;41.50;;;;;;5092542;28;20066;-70
2022/07/20 14:02:18;;;;;;;7.57;3.40;;;38.60;40.90;;;;;;5092931;28;20039;-68
2022/07/20 14:05:22;;;;;;;15.35;4.25;;;38.80;40.80;;;;;;5092572;28;20340;-72
2022/07/20 14:08:27;;;;;;;10.07;3.65;;;38.70;40.00;;;;;;5092303;28;20055;-69
2022/07/20 14:11:31;;;;;;;8.10;3.60;;;38.60;40.10;;;;;;5091901;28;20041;-71
2022/07/20 14:14:36;;;;;;;11.32;3.38;;;38.40;40.40;;;;;;5091046;28;20047;-72
2022/07/20 14:17:41;;;;;;;7.60;3.53;;;38.40;40.40;;;;;;5091861;28;20039;-69
2022/07/20 14:20:45;;;;;;;63.97;5.78;;;38.30;39.50;;;;;;5092023;28;20047;-69
2022/07/20 14:23:50;;;;;;;12.52;3.90;;;38.50;39.50;;;;;;5091600;28;20047;-73
2022/07/20 14:26:54;;;;;;;10.05;3.42;;;38.90;39.20;;;;;;5091746;28;20043;-70
2022/07/20 14:29:59;;;;;;;8.05;3.42;;;38.60;39.50;;;;;;5090669;28;20070;-70
2022/07/20 14:33:03;;;;;;;10.90;3.53;;;38.10;39.30;;;;;;5091020;28;20047;-70
2022/07/20 14:36:07;;;;;;;6.72;3.20;;;37.60;39.90;;;;;;5091647;28;20055;-71
2022/07/20 14:39:11;;;;;;;11.23;3.35;;;37.20;40.30;;;;;;5091589;28;20502;-70
2022/07/20 14:42:15;;;;;;;6.32;3.45;;;36.80;40.80;;;;;;5091578;28;20217;-71
2022/07/20 14:45:19;;;;;;;7.85;3.20;;;36.50;41.00;;;;;;5090789;28;20054;-71
2022/07/20 14:48:23;;;;;;;13.88;4.00;;;36.40;41.40;;;;;;5091242;28;20051;-70
2022/07/20 14:51:27;;;;;;;9.57;3.20;;;36.30;40.90;;;;;;5089979;28;20043;-70
2022/07/20 14:54:30;;;;;;;19.42;3.92;;;36.50;41.00;;;;;;5090925;28;20039;-70
2022/07/20 14:57:34;;;;;;;11.43;3.80;;;36.90;41.50;;;;;;5091096;28;20055;-70
2022/07/20 15:00:38;;;;;;;10.05;4.35;;;37.70;40.70;;;;;;5090891;28;20047;-67
2022/07/20 15:03:42;;;;;;;9.07;3.60;;;38.20;40.00;;;;;;5091401;28;20051;-67
2022/07/20 15:06:46;;;;;;;10.65;3.78;;;38.20;41.50;;;;;;5090621;28;20050;-67
2022/07/20 15:09:50;;;;;;;6.97;3.50;;;38.40;41.90;;;;;;5091233;28;20051;-68
2022/07/20 15:12:54;;;;;;;7.90;4.00;;;38.60;42.50;;;;;;5091359;28;20051;-67
2022/07/20 15:15:59;;;;;;;10.18;3.95;;;38.50;43.10;;;;;;5091321;28;20047;-70
2022/07/20 15:19:03;;;;;;;10.73;3.20;;;38.70;43.70;;;;;;5091459;28;20047;-68
2022/07/20 15:22:07;;;;;;;7.78;3.40;;;38.70;42.90;;;;;;5090893;28;20051;-68
2022/07/20 15:25:10;;;;;;;14.43;4.05;;;38.50;41.90;;;;;;5091199;28;20051;-67
2022/07/20 15:28:15;;;;;;;8.18;3.70;;;37.70;42.90;;;;;;5091332;28;20039;-67
2022/07/20 15:31:19;;;;;;;11.80;3.95;;;37.10;42.60;;;;;;5091499;28;20054;-67
2022/07/20 15:34:23;;;;;;;9.45;3.20;;;36.60;44.00;;;;;;5090776;28;20043;-68
2022/07/20 15:37:27;;;;;;;14.13;3.72;;;36.30;45.10;;;;;;5091225;28;20047;-67
2022/07/20 15:40:31;;;;;;;13.00;3.80;;;36.00;45.50;;;;;;5090873;28;20043;-67
2022/07/20 15:43:36;;;;;;;12.57;4.72;;;35.90;44.90;;;;;;5091103;28;20051;-68
2022/07/20 15:46:41;;;;;;;11.55;4.22;;;35.80;45.40;;;;;;5090701;28;20059;-67
2022/07/20 15:49:45;;;;;;;15.45;3.72;;;35.70;45.30;;;;;;5090440;28;20360;-67
2022/07/20 15:52:49;;;;;;;7.05;4.03;;;35.60;46.80;;;;;;5091200;28;20380;-67
2022/07/20 15:55:53;;;;;;;9.57;4.35;;;35.60;47.40;;;;;;5090487;28;20054;-67
2022/07/20 15:58:57;;;;;;;7.47;3.58;;;35.50;48.00;;;;;;5090988;28;20047;-67